Pagrindinis puslapis
METAR-TAF:

METAR-TAF

Oro uostai :

Evansvilis, Indiana, Jungtinės Amerikos Valstijos

platuma: 38-02-35N, ilguma: 087-31-13W, Aukštis: 127 m

Dabartinis oras

Ataskaita buvo paskelbta 1 valandą ir 2 minutes, ne 19:54 UTC
Vėjas 12 kt iš Pietvakarių
Temperatūra 31°C
Drėgmė 29%
Slėgis 1017 hPa
Matomumas: 16.1 km
Giedras dangus

METAR: KEVV 021954Z 23012KT 10SM CLR 31/11 A3004 RMK AO2 SLP167 T03110111

Laikas: 15:56 (20:56 UTC)

Prognozė

Ataskaita buvo paskelbta 3 valandos ir 36 minutes, ne 17:20 UTC
Prognozė galioja nuo 02 metu 18 UTC su 03 metu 18 UTC
Vėjas 9 kt iš Pietvakarių
Matomumas: 10 km
Giedras dangus
Nuo 03 metu 0100 UTC
Vėjas 4 kt nuo kintamojo kryptimis
Matomumas: 10 km
Mažai debesys ne aukštis 15000 ft

TAF: KEVV 021720Z 0218/0318 23009KT P6SM SKC FM030100 VRB04KT P6SM FEW150

Orai ataskaitas ir orų prognozės (METAR, TAF).

turimą stotys yra geltonos ir raudonos taškus žemėlapyje.

Perkelti pele per norėdami pamatyti stoties vardą.

Tada spustelėkite, norėdami matyti oro stebėjimo ir prognozės.

Norėdami pakeisti žemėlapį: spustelėkite ant žalios mygtukų su juodo kryžiaus žemyn,; žalią mygtuką su brūkšneliu, jei norite nutolinti; arba žalių rodyklių gretimoms žemėlapius.


METAR-TAF: